sensor_id;sensor_type;location;lat;lon;timestamp;P1;durP1;ratioP1;P2;durP2;ratioP2
23730;SDS011;12046;44.702;10.622;2023-01-08T00:01:11;38.17;;;27.98;;
23730;SDS011;12046;44.702;10.622;2023-01-08T00:03:37;46.92;;;34.55;;
23730;SDS011;12046;44.702;10.622;2023-01-08T00:06:04;47.30;;;34.78;;
23730;SDS011;12046;44.702;10.622;2023-01-08T00:08:32;46.25;;;30.75;;
23730;SDS011;12046;44.702;10.622;2023-01-08T00:10:59;45.25;;;29.80;;
23730;SDS011;12046;44.702;10.622;2023-01-08T00:13:25;42.17;;;29.25;;
23730;SDS011;12046;44.702;10.622;2023-01-08T00:15:51;44.13;;;30.60;;
23730;SDS011;12046;44.702;10.622;2023-01-08T00:18:17;42.97;;;31.40;;
23730;SDS011;12046;44.702;10.622;2023-01-08T00:20:44;41.28;;;30.30;;
23730;SDS011;12046;44.702;10.622;2023-01-08T00:23:14;44.20;;;32.15;;
23730;SDS011;12046;44.702;10.622;2023-01-08T00:25:43;40.70;;;30.92;;
23730;SDS011;12046;44.702;10.622;2023-01-08T00:28:09;45.58;;;33.47;;
23730;SDS011;12046;44.702;10.622;2023-01-08T00:30:36;39.78;;;29.17;;
23730;SDS011;12046;44.702;10.622;2023-01-08T00:33:02;47.63;;;33.85;;
23730;SDS011;12046;44.702;10.622;2023-01-08T00:35:28;50.25;;;36.22;;
23730;SDS011;12046;44.702;10.622;2023-01-08T00:37:54;43.83;;;33.28;;
23730;SDS011;12046;44.702;10.622;2023-01-08T00:40:20;46.53;;;34.83;;
23730;SDS011;12046;44.702;10.622;2023-01-08T00:42:46;40.80;;;29.13;;
23730;SDS011;12046;44.702;10.622;2023-01-08T00:45:12;45.90;;;34.35;;
23730;SDS011;12046;44.702;10.622;2023-01-08T00:47:39;44.17;;;31.23;;
23730;SDS011;12046;44.702;10.622;2023-01-08T00:50:05;47.95;;;31.88;;
23730;SDS011;12046;44.702;10.622;2023-01-08T00:52:31;48.97;;;33.53;;
23730;SDS011;12046;44.702;10.622;2023-01-08T00:54:57;54.05;;;37.63;;
23730;SDS011;12046;44.702;10.622;2023-01-08T00:57:23;49.33;;;37.00;;
23730;SDS011;12046;44.702;10.622;2023-01-08T00:59:49;48.15;;;35.55;;
23730;SDS011;12046;44.702;10.622;2023-01-08T01:02:16;48.90;;;35.88;;
23730;SDS011;12046;44.702;10.622;2023-01-08T01:04:42;52.45;;;37.08;;
23730;SDS011;12046;44.702;10.622;2023-01-08T01:07:08;58.25;;;40.88;;
23730;SDS011;12046;44.702;10.622;2023-01-08T01:09:34;56.08;;;38.15;;
23730;SDS011;12046;44.702;10.622;2023-01-08T01:12:00;51.28;;;36.53;;
23730;SDS011;12046;44.702;10.622;2023-01-08T01:14:26;42.25;;;29.70;;
23730;SDS011;12046;44.702;10.622;2023-01-08T01:16:52;39.08;;;29.77;;
23730;SDS011;12046;44.702;10.622;2023-01-08T01:19:17;43.33;;;30.02;;
23730;SDS011;12046;44.702;10.622;2023-01-08T01:21:44;45.03;;;32.58;;
23730;SDS011;12046;44.702;10.622;2023-01-08T01:24:11;44.13;;;31.17;;
23730;SDS011;12046;44.702;10.622;2023-01-08T01:26:37;44.25;;;31.92;;
23730;SDS011;12046;44.702;10.622;2023-01-08T01:29:03;41.00;;;29.38;;
23730;SDS011;12046;44.702;10.622;2023-01-08T01:31:29;43.65;;;31.38;;
23730;SDS011;12046;44.702;10.622;2023-01-08T01:33:56;45.75;;;33.42;;
23730;SDS011;12046;44.702;10.622;2023-01-08T01:36:22;45.05;;;32.22;;
23730;SDS011;12046;44.702;10.622;2023-01-08T01:38:50;44.25;;;30.13;;
23730;SDS011;12046;44.702;10.622;2023-01-08T01:41:30;44.60;;;32.38;;
23730;SDS011;12046;44.702;10.622;2023-01-08T01:49:45;41.28;;;30.50;;
23730;SDS011;12046;44.702;10.622;2023-01-08T01:52:19;47.88;;;35.92;;
23730;SDS011;12046;44.702;10.622;2023-01-08T01:54:47;52.38;;;36.75;;
23730;SDS011;12046;44.702;10.622;2023-01-08T01:57:15;43.83;;;30.63;;
23730;SDS011;12046;44.702;10.622;2023-01-08T01:59:41;48.03;;;35.10;;
23730;SDS011;12046;44.702;10.622;2023-01-08T02:02:08;44.00;;;31.35;;
23730;SDS011;12046;44.702;10.622;2023-01-08T02:04:34;43.75;;;30.65;;
23730;SDS011;12046;44.702;10.622;2023-01-08T02:17:59;43.67;;;30.63;;
23730;SDS011;12046;44.702;10.622;2023-01-08T02:20:41;39.33;;;28.45;;
23730;SDS011;12046;44.702;10.622;2023-01-08T02:23:44;54.90;;;38.35;;
23730;SDS011;12046;44.702;10.622;2023-01-08T02:31:36;54.03;;;35.40;;
23730;SDS011;12046;44.702;10.622;2023-01-08T02:34:03;47.42;;;32.08;;
23730;SDS011;12046;44.702;10.622;2023-01-08T02:39:19;50.35;;;35.25;;
23730;SDS011;12046;44.702;10.622;2023-01-08T02:42:06;47.80;;;32.75;;
23730;SDS011;12046;44.702;10.622;2023-01-08T02:50:13;48.95;;;34.67;;
23730;SDS011;12046;44.702;10.622;2023-01-08T02:52:53;52.03;;;37.30;;
23730;SDS011;12046;44.702;10.622;2023-01-08T02:55:27;51.85;;;34.08;;
23730;SDS011;12046;44.702;10.622;2023-01-08T02:57:57;54.70;;;37.65;;
23730;SDS011;12046;44.702;10.622;2023-01-08T03:00:24;67.50;;;45.00;;
23730;SDS011;12046;44.702;10.622;2023-01-08T03:02:54;55.03;;;35.90;;
23730;SDS011;12046;44.702;10.622;2023-01-08T03:05:29;53.53;;;36.65;;
23730;SDS011;12046;44.702;10.622;2023-01-08T03:07:55;51.72;;;35.17;;
23730;SDS011;12046;44.702;10.622;2023-01-08T03:10:21;61.60;;;42.08;;
23730;SDS011;12046;44.702;10.622;2023-01-08T03:12:54;56.83;;;37.35;;
23730;SDS011;12046;44.702;10.622;2023-01-08T03:15:24;65.15;;;42.15;;
23730;SDS011;12046;44.702;10.622;2023-01-08T03:18:01;54.65;;;36.70;;
23730;SDS011;12046;44.702;10.622;2023-01-08T03:20:31;56.80;;;36.53;;
23730;SDS011;12046;44.702;10.622;2023-01-08T03:23:00;55.78;;;37.15;;
23730;SDS011;12046;44.702;10.622;2023-01-08T03:25:28;51.40;;;35.58;;
23730;SDS011;12046;44.702;10.622;2023-01-08T03:27:56;63.35;;;42.83;;
23730;SDS011;12046;44.702;10.622;2023-01-08T03:30:25;60.30;;;42.30;;
23730;SDS011;12046;44.702;10.622;2023-01-08T03:32:55;53.30;;;36.08;;
23730;SDS011;12046;44.702;10.622;2023-01-08T03:35:24;53.22;;;36.65;;
23730;SDS011;12046;44.702;10.622;2023-01-08T03:37:53;57.50;;;37.45;;
23730;SDS011;12046;44.702;10.622;2023-01-08T03:40:28;56.00;;;37.40;;
23730;SDS011;12046;44.702;10.622;2023-01-08T03:42:59;61.40;;;41.47;;
23730;SDS011;12046;44.702;10.622;2023-01-08T03:45:28;60.30;;;40.78;;
23730;SDS011;12046;44.702;10.622;2023-01-08T03:47:55;57.70;;;37.03;;
23730;SDS011;12046;44.702;10.622;2023-01-08T03:50:23;61.03;;;42.45;;
23730;SDS011;12046;44.702;10.622;2023-01-08T03:52:51;64.65;;;40.88;;
23730;SDS011;12046;44.702;10.622;2023-01-08T03:55:17;68.28;;;42.25;;
23730;SDS011;12046;44.702;10.622;2023-01-08T03:57:43;54.72;;;37.17;;
23730;SDS011;12046;44.702;10.622;2023-01-08T04:00:09;61.85;;;40.33;;
23730;SDS011;12046;44.702;10.622;2023-01-08T04:02:36;63.22;;;43.67;;
23730;SDS011;12046;44.702;10.622;2023-01-08T04:05:02;58.95;;;37.95;;
23730;SDS011;12046;44.702;10.622;2023-01-08T04:07:28;55.20;;;36.78;;
23730;SDS011;12046;44.702;10.622;2023-01-08T04:09:53;67.03;;;42.80;;
23730;SDS011;12046;44.702;10.622;2023-01-08T04:12:19;55.80;;;38.85;;
23730;SDS011;12046;44.702;10.622;2023-01-08T04:14:45;59.20;;;39.25;;
23730;SDS011;12046;44.702;10.622;2023-01-08T04:17:11;62.15;;;41.85;;
23730;SDS011;12046;44.702;10.622;2023-01-08T04:19:38;59.85;;;38.33;;
23730;SDS011;12046;44.702;10.622;2023-01-08T04:22:04;55.13;;;36.38;;
23730;SDS011;12046;44.702;10.622;2023-01-08T04:24:30;57.88;;;38.25;;
23730;SDS011;12046;44.702;10.622;2023-01-08T04:26:56;63.33;;;40.20;;
23730;SDS011;12046;44.702;10.622;2023-01-08T04:29:22;59.85;;;36.75;;
23730;SDS011;12046;44.702;10.622;2023-01-08T04:31:47;53.30;;;38.05;;
23730;SDS011;12046;44.702;10.622;2023-01-08T04:34:13;56.35;;;37.40;;
23730;SDS011;12046;44.702;10.622;2023-01-08T04:36:39;64.88;;;41.88;;
23730;SDS011;12046;44.702;10.622;2023-01-08T04:39:06;59.80;;;39.22;;
23730;SDS011;12046;44.702;10.622;2023-01-08T04:41:32;65.45;;;43.25;;
23730;SDS011;12046;44.702;10.622;2023-01-08T04:43:58;58.80;;;39.00;;
23730;SDS011;12046;44.702;10.622;2023-01-08T04:46:23;65.95;;;42.08;;
23730;SDS011;12046;44.702;10.622;2023-01-08T04:48:49;72.15;;;42.33;;
23730;SDS011;12046;44.702;10.622;2023-01-08T04:51:15;65.28;;;42.00;;
23730;SDS011;12046;44.702;10.622;2023-01-08T04:53:41;71.43;;;45.30;;
23730;SDS011;12046;44.702;10.622;2023-01-08T04:56:08;67.18;;;42.22;;
23730;SDS011;12046;44.702;10.622;2023-01-08T04:58:35;67.10;;;43.50;;
23730;SDS011;12046;44.702;10.622;2023-01-08T05:01:11;70.68;;;46.42;;
23730;SDS011;12046;44.702;10.622;2023-01-08T05:03:40;68.35;;;42.15;;
23730;SDS011;12046;44.702;10.622;2023-01-08T05:06:06;63.65;;;41.65;;
23730;SDS011;12046;44.702;10.622;2023-01-08T05:08:32;70.82;;;43.25;;
23730;SDS011;12046;44.702;10.622;2023-01-08T05:10:58;74.35;;;44.97;;
23730;SDS011;12046;44.702;10.622;2023-01-08T05:13:25;73.22;;;44.00;;
23730;SDS011;12046;44.702;10.622;2023-01-08T05:15:51;68.53;;;41.50;;
23730;SDS011;12046;44.702;10.622;2023-01-08T05:18:16;79.40;;;45.25;;
23730;SDS011;12046;44.702;10.622;2023-01-08T05:20:42;72.72;;;43.17;;
23730;SDS011;12046;44.702;10.622;2023-01-08T05:23:08;69.32;;;43.42;;
23730;SDS011;12046;44.702;10.622;2023-01-08T05:25:34;78.22;;;47.10;;
23730;SDS011;12046;44.702;10.622;2023-01-08T05:28:00;81.07;;;45.13;;
23730;SDS011;12046;44.702;10.622;2023-01-08T05:30:26;79.78;;;45.20;;
23730;SDS011;12046;44.702;10.622;2023-01-08T05:32:52;85.20;;;48.50;;
23730;SDS011;12046;44.702;10.622;2023-01-08T05:35:18;78.45;;;45.80;;
23730;SDS011;12046;44.702;10.622;2023-01-08T05:37:44;74.10;;;43.85;;
23730;SDS011;12046;44.702;10.622;2023-01-08T05:40:10;81.68;;;47.72;;
23730;SDS011;12046;44.702;10.622;2023-01-08T05:42:36;80.45;;;47.92;;
23730;SDS011;12046;44.702;10.622;2023-01-08T05:45:03;72.78;;;44.70;;
23730;SDS011;12046;44.702;10.622;2023-01-08T05:47:31;85.53;;;48.20;;
23730;SDS011;12046;44.702;10.622;2023-01-08T05:49:57;84.57;;;47.58;;
23730;SDS011;12046;44.702;10.622;2023-01-08T05:52:24;81.80;;;42.63;;
23730;SDS011;12046;44.702;10.622;2023-01-08T05:54:49;89.07;;;50.50;;
23730;SDS011;12046;44.702;10.622;2023-01-08T05:57:15;80.22;;;47.13;;
23730;SDS011;12046;44.702;10.622;2023-01-08T05:59:41;84.38;;;48.60;;
23730;SDS011;12046;44.702;10.622;2023-01-08T06:02:07;77.75;;;44.33;;
23730;SDS011;12046;44.702;10.622;2023-01-08T06:04:33;83.00;;;44.97;;
23730;SDS011;12046;44.702;10.622;2023-01-08T06:06:59;81.40;;;47.80;;
23730;SDS011;12046;44.702;10.622;2023-01-08T06:09:25;79.32;;;42.10;;
23730;SDS011;12046;44.702;10.622;2023-01-08T06:11:51;91.55;;;47.28;;
23730;SDS011;12046;44.702;10.622;2023-01-08T06:14:17;83.78;;;45.22;;
23730;SDS011;12046;44.702;10.622;2023-01-08T06:16:43;93.15;;;47.20;;
23730;SDS011;12046;44.702;10.622;2023-01-08T06:19:09;87.43;;;51.05;;
23730;SDS011;12046;44.702;10.622;2023-01-08T06:21:36;88.97;;;50.42;;
23730;SDS011;12046;44.702;10.622;2023-01-08T06:24:02;84.55;;;49.15;;
23730;SDS011;12046;44.702;10.622;2023-01-08T06:26:28;91.68;;;51.20;;
23730;SDS011;12046;44.702;10.622;2023-01-08T06:28:54;94.82;;;51.60;;
23730;SDS011;12046;44.702;10.622;2023-01-08T06:31:20;87.53;;;49.92;;
23730;SDS011;12046;44.702;10.622;2023-01-08T06:33:46;106.07;;;60.08;;
23730;SDS011;12046;44.702;10.622;2023-01-08T06:36:12;113.65;;;60.28;;
23730;SDS011;12046;44.702;10.622;2023-01-08T06:38:38;87.22;;;51.42;;
23730;SDS011;12046;44.702;10.622;2023-01-08T06:41:05;94.20;;;51.13;;
23730;SDS011;12046;44.702;10.622;2023-01-08T06:43:33;104.65;;;56.38;;
23730;SDS011;12046;44.702;10.622;2023-01-08T06:45:59;115.55;;;62.38;;
23730;SDS011;12046;44.702;10.622;2023-01-08T06:48:26;108.07;;;60.55;;
23730;SDS011;12046;44.702;10.622;2023-01-08T06:50:52;96.60;;;51.63;;
23730;SDS011;12046;44.702;10.622;2023-01-08T06:53:18;111.32;;;60.70;;
23730;SDS011;12046;44.702;10.622;2023-01-08T06:55:44;78.88;;;46.25;;
23730;SDS011;12046;44.702;10.622;2023-01-08T06:58:10;75.53;;;45.50;;
23730;SDS011;12046;44.702;10.622;2023-01-08T07:00:37;76.03;;;46.38;;
23730;SDS011;12046;44.702;10.622;2023-01-08T07:03:03;74.30;;;44.85;;
23730;SDS011;12046;44.702;10.622;2023-01-08T07:05:29;74.20;;;46.58;;
23730;SDS011;12046;44.702;10.622;2023-01-08T07:07:56;70.00;;;43.63;;
23730;SDS011;12046;44.702;10.622;2023-01-08T07:10:22;64.18;;;43.53;;
23730;SDS011;12046;44.702;10.622;2023-01-08T07:12:48;71.78;;;45.03;;
23730;SDS011;12046;44.702;10.622;2023-01-08T07:15:15;77.85;;;49.17;;
23730;SDS011;12046;44.702;10.622;2023-01-08T07:17:41;68.28;;;42.70;;
23730;SDS011;12046;44.702;10.622;2023-01-08T07:20:07;67.18;;;45.85;;
23730;SDS011;12046;44.702;10.622;2023-01-08T07:22:34;67.28;;;41.50;;
23730;SDS011;12046;44.702;10.622;2023-01-08T07:24:59;62.08;;;41.22;;
23730;SDS011;12046;44.702;10.622;2023-01-08T07:27:25;64.70;;;42.60;;
23730;SDS011;12046;44.702;10.622;2023-01-08T07:29:51;73.80;;;47.05;;
23730;SDS011;12046;44.702;10.622;2023-01-08T07:32:20;61.50;;;40.95;;
23730;SDS011;12046;44.702;10.622;2023-01-08T07:34:47;65.90;;;42.58;;
23730;SDS011;12046;44.702;10.622;2023-01-08T07:37:13;60.22;;;41.47;;
23730;SDS011;12046;44.702;10.622;2023-01-08T07:39:39;58.00;;;39.35;;
23730;SDS011;12046;44.702;10.622;2023-01-08T07:42:04;63.33;;;43.42;;
23730;SDS011;12046;44.702;10.622;2023-01-08T07:44:30;61.75;;;41.65;;
23730;SDS011;12046;44.702;10.622;2023-01-08T07:46:56;63.58;;;40.17;;
23730;SDS011;12046;44.702;10.622;2023-01-08T07:49:22;75.65;;;50.25;;
23730;SDS011;12046;44.702;10.622;2023-01-08T07:51:48;69.05;;;46.55;;
23730;SDS011;12046;44.702;10.622;2023-01-08T07:54:14;62.13;;;41.40;;
23730;SDS011;12046;44.702;10.622;2023-01-08T07:56:40;65.93;;;43.92;;
23730;SDS011;12046;44.702;10.622;2023-01-08T07:59:06;67.45;;;44.58;;
23730;SDS011;12046;44.702;10.622;2023-01-08T08:01:32;55.67;;;38.83;;
23730;SDS011;12046;44.702;10.622;2023-01-08T08:03:57;63.78;;;42.60;;
23730;SDS011;12046;44.702;10.622;2023-01-08T08:06:23;64.15;;;42.30;;
23730;SDS011;12046;44.702;10.622;2023-01-08T08:08:49;60.72;;;41.08;;
23730;SDS011;12046;44.702;10.622;2023-01-08T08:11:15;56.83;;;39.20;;
23730;SDS011;12046;44.702;10.622;2023-01-08T08:13:41;65.60;;;46.03;;
23730;SDS011;12046;44.702;10.622;2023-01-08T08:16:09;62.70;;;42.83;;
23730;SDS011;12046;44.702;10.622;2023-01-08T08:18:36;57.28;;;39.75;;
23730;SDS011;12046;44.702;10.622;2023-01-08T08:21:02;56.00;;;40.08;;
23730;SDS011;12046;44.702;10.622;2023-01-08T08:23:28;58.97;;;41.00;;
23730;SDS011;12046;44.702;10.622;2023-01-08T08:25:54;59.25;;;40.78;;
23730;SDS011;12046;44.702;10.622;2023-01-08T08:28:20;60.45;;;44.08;;
23730;SDS011;12046;44.702;10.622;2023-01-08T08:30:46;67.43;;;45.10;;
23730;SDS011;12046;44.702;10.622;2023-01-08T08:33:12;58.53;;;41.42;;
23730;SDS011;12046;44.702;10.622;2023-01-08T08:35:38;56.50;;;38.38;;
23730;SDS011;12046;44.702;10.622;2023-01-08T08:38:04;58.40;;;39.97;;
23730;SDS011;12046;44.702;10.622;2023-01-08T08:40:30;57.83;;;39.30;;
23730;SDS011;12046;44.702;10.622;2023-01-08T08:42:56;58.20;;;40.60;;
23730;SDS011;12046;44.702;10.622;2023-01-08T08:45:23;53.25;;;37.35;;
23730;SDS011;12046;44.702;10.622;2023-01-08T08:47:50;57.63;;;40.25;;
23730;SDS011;12046;44.702;10.622;2023-01-08T08:50:17;69.50;;;45.13;;
23730;SDS011;12046;44.702;10.622;2023-01-08T08:52:43;62.30;;;41.55;;
23730;SDS011;12046;44.702;10.622;2023-01-08T08:55:10;57.10;;;38.70;;
23730;SDS011;12046;44.702;10.622;2023-01-08T08:57:44;60.25;;;40.33;;
23730;SDS011;12046;44.702;10.622;2023-01-08T09:00:11;53.53;;;38.22;;
23730;SDS011;12046;44.702;10.622;2023-01-08T09:02:38;60.40;;;41.63;;
23730;SDS011;12046;44.702;10.622;2023-01-08T09:05:04;56.97;;;39.97;;
23730;SDS011;12046;44.702;10.622;2023-01-08T09:07:31;55.13;;;37.45;;
23730;SDS011;12046;44.702;10.622;2023-01-08T09:09:57;58.13;;;38.42;;
23730;SDS011;12046;44.702;10.622;2023-01-08T09:12:23;56.53;;;39.13;;
23730;SDS011;12046;44.702;10.622;2023-01-08T09:14:49;58.88;;;42.15;;
23730;SDS011;12046;44.702;10.622;2023-01-08T09:17:16;53.83;;;38.55;;
23730;SDS011;12046;44.702;10.622;2023-01-08T09:19:42;63.95;;;43.00;;
23730;SDS011;12046;44.702;10.622;2023-01-08T09:22:08;61.17;;;41.55;;
23730;SDS011;12046;44.702;10.622;2023-01-08T09:24:33;60.65;;;41.13;;
23730;SDS011;12046;44.702;10.622;2023-01-08T09:26:59;65.72;;;45.08;;
23730;SDS011;12046;44.702;10.622;2023-01-08T09:29:25;59.70;;;38.95;;
23730;SDS011;12046;44.702;10.622;2023-01-08T09:31:51;58.85;;;40.83;;
23730;SDS011;12046;44.702;10.622;2023-01-08T09:34:17;57.25;;;37.92;;
23730;SDS011;12046;44.702;10.622;2023-01-08T09:36:48;56.08;;;41.63;;
23730;SDS011;12046;44.702;10.622;2023-01-08T09:39:14;59.83;;;39.95;;
23730;SDS011;12046;44.702;10.622;2023-01-08T09:41:41;58.83;;;40.08;;
23730;SDS011;12046;44.702;10.622;2023-01-08T09:44:13;55.60;;;37.95;;
23730;SDS011;12046;44.702;10.622;2023-01-08T09:46:41;60.72;;;38.70;;
23730;SDS011;12046;44.702;10.622;2023-01-08T09:49:10;58.15;;;38.75;;
23730;SDS011;12046;44.702;10.622;2023-01-08T09:51:41;57.00;;;37.47;;
23730;SDS011;12046;44.702;10.622;2023-01-08T09:54:09;55.35;;;38.13;;
23730;SDS011;12046;44.702;10.622;2023-01-08T09:56:39;54.25;;;37.03;;
23730;SDS011;12046;44.702;10.622;2023-01-08T09:59:05;53.72;;;37.70;;
23730;SDS011;12046;44.702;10.622;2023-01-08T10:01:36;56.72;;;38.17;;
23730;SDS011;12046;44.702;10.622;2023-01-08T10:04:18;60.75;;;39.80;;
23730;SDS011;12046;44.702;10.622;2023-01-08T10:09:18;59.08;;;39.28;;
23730;SDS011;12046;44.702;10.622;2023-01-08T10:11:49;61.35;;;40.80;;
23730;SDS011;12046;44.702;10.622;2023-01-08T10:14:24;63.78;;;43.53;;
23730;SDS011;12046;44.702;10.622;2023-01-08T10:16:59;67.15;;;41.30;;
23730;SDS011;12046;44.702;10.622;2023-01-08T10:19:28;65.18;;;42.38;;
23730;SDS011;12046;44.702;10.622;2023-01-08T10:21:54;72.07;;;42.78;;
23730;SDS011;12046;44.702;10.622;2023-01-08T10:24:31;72.78;;;43.75;;
23730;SDS011;12046;44.702;10.622;2023-01-08T10:27:16;72.95;;;42.67;;
23730;SDS011;12046;44.702;10.622;2023-01-08T10:29:45;67.35;;;41.95;;
23730;SDS011;12046;44.702;10.622;2023-01-08T10:32:25;69.97;;;43.22;;
23730;SDS011;12046;44.702;10.622;2023-01-08T10:35:02;66.00;;;42.38;;
23730;SDS011;12046;44.702;10.622;2023-01-08T10:37:40;70.20;;;40.78;;
23730;SDS011;12046;44.702;10.622;2023-01-08T10:40:16;73.47;;;45.60;;
23730;SDS011;12046;44.702;10.622;2023-01-08T10:42:45;70.05;;;42.47;;
23730;SDS011;12046;44.702;10.622;2023-01-08T10:45:17;70.40;;;41.30;;
23730;SDS011;12046;44.702;10.622;2023-01-08T10:47:46;75.45;;;45.03;;
23730;SDS011;12046;44.702;10.622;2023-01-08T10:50:18;75.85;;;46.08;;
23730;SDS011;12046;44.702;10.622;2023-01-08T10:52:51;73.57;;;43.92;;
23730;SDS011;12046;44.702;10.622;2023-01-08T10:55:28;79.57;;;46.35;;
23730;SDS011;12046;44.702;10.622;2023-01-08T10:58:02;73.53;;;42.53;;
23730;SDS011;12046;44.702;10.622;2023-01-08T11:00:36;75.53;;;42.28;;
23730;SDS011;12046;44.702;10.622;2023-01-08T11:03:03;76.75;;;44.53;;
23730;SDS011;12046;44.702;10.622;2023-01-08T11:05:31;78.50;;;44.10;;
23730;SDS011;12046;44.702;10.622;2023-01-08T11:08:04;74.68;;;41.05;;
23730;SDS011;12046;44.702;10.622;2023-01-08T11:10:37;72.07;;;41.03;;
23730;SDS011;12046;44.702;10.622;2023-01-08T11:13:06;75.45;;;43.10;;
23730;SDS011;12046;44.702;10.622;2023-01-08T11:18:20;76.40;;;41.88;;
23730;SDS011;12046;44.702;10.622;2023-01-08T11:20:48;78.97;;;42.90;;
23730;SDS011;12046;44.702;10.622;2023-01-08T11:23:17;79.43;;;45.08;;
23730;SDS011;12046;44.702;10.622;2023-01-08T11:28:53;76.80;;;44.03;;
23730;SDS011;12046;44.702;10.622;2023-01-08T11:32:06;79.03;;;45.15;;
23730;SDS011;12046;44.702;10.622;2023-01-08T11:37:13;66.90;;;37.35;;
23730;SDS011;12046;44.702;10.622;2023-01-08T11:39:44;71.35;;;42.38;;
23730;SDS011;12046;44.702;10.622;2023-01-08T11:56:38;64.07;;;38.80;;
23730;SDS011;12046;44.702;10.622;2023-01-08T12:01:59;64.95;;;39.92;;
23730;SDS011;12046;44.702;10.622;2023-01-08T12:18:22;66.28;;;40.10;;
23730;SDS011;12046;44.702;10.622;2023-01-08T12:21:11;61.78;;;39.75;;
23730;SDS011;12046;44.702;10.622;2023-01-08T12:33:56;58.22;;;38.72;;
23730;SDS011;12046;44.702;10.622;2023-01-08T12:36:48;59.72;;;38.88;;
23730;SDS011;12046;44.702;10.622;2023-01-08T12:42:04;59.22;;;38.55;;
23730;SDS011;12046;44.702;10.622;2023-01-08T12:44:37;58.53;;;36.88;;
23730;SDS011;12046;44.702;10.622;2023-01-08T12:47:05;60.80;;;39.45;;
23730;SDS011;12046;44.702;10.622;2023-01-08T12:49:40;63.28;;;39.75;;
23730;SDS011;12046;44.702;10.622;2023-01-08T12:52:20;55.28;;;33.50;;
23730;SDS011;12046;44.702;10.622;2023-01-08T12:54:52;60.97;;;39.17;;
23730;SDS011;12046;44.702;10.622;2023-01-08T13:00:49;52.35;;;35.83;;
23730;SDS011;12046;44.702;10.622;2023-01-08T13:03:24;60.47;;;42.03;;
23730;SDS011;12046;44.702;10.622;2023-01-08T13:06:08;55.75;;;37.92;;
23730;SDS011;12046;44.702;10.622;2023-01-08T13:08:39;60.40;;;38.28;;
23730;SDS011;12046;44.702;10.622;2023-01-08T13:11:09;61.95;;;38.50;;
23730;SDS011;12046;44.702;10.622;2023-01-08T13:13:39;62.90;;;39.58;;
23730;SDS011;12046;44.702;10.622;2023-01-08T13:21:17;63.17;;;41.42;;
23730;SDS011;12046;44.702;10.622;2023-01-08T13:24:00;61.53;;;38.10;;
23730;SDS011;12046;44.702;10.622;2023-01-08T13:26:45;66.47;;;43.45;;
23730;SDS011;12046;44.702;10.622;2023-01-08T13:32:04;62.25;;;37.45;;
23730;SDS011;12046;44.702;10.622;2023-01-08T13:35:33;70.18;;;44.47;;
23730;SDS011;12046;44.702;10.622;2023-01-08T13:37:41;73.80;;;47.50;;
23730;SDS011;12046;44.702;10.622;2023-01-08T13:48:36;69.03;;;43.80;;
23730;SDS011;12046;44.702;10.622;2023-01-08T13:51:27;69.70;;;45.13;;
23730;SDS011;12046;44.702;10.622;2023-01-08T13:54:04;74.85;;;46.55;;
23730;SDS011;12046;44.702;10.622;2023-01-08T14:01:52;65.50;;;41.95;;
23730;SDS011;12046;44.702;10.622;2023-01-08T14:04:20;71.57;;;43.47;;
23730;SDS011;12046;44.702;10.622;2023-01-08T14:06:49;71.40;;;41.33;;
23730;SDS011;12046;44.702;10.622;2023-01-08T14:09:23;71.32;;;43.42;;
23730;SDS011;12046;44.702;10.622;2023-01-08T14:11:51;72.30;;;44.50;;
23730;SDS011;12046;44.702;10.622;2023-01-08T14:14:20;73.35;;;47.30;;
23730;SDS011;12046;44.702;10.622;2023-01-08T14:16:48;72.30;;;46.38;;
23730;SDS011;12046;44.702;10.622;2023-01-08T14:19:16;73.25;;;44.38;;
23730;SDS011;12046;44.702;10.622;2023-01-08T14:21:48;74.97;;;43.20;;
23730;SDS011;12046;44.702;10.622;2023-01-08T14:24:16;84.75;;;49.72;;
23730;SDS011;12046;44.702;10.622;2023-01-08T14:26:49;73.82;;;45.25;;
23730;SDS011;12046;44.702;10.622;2023-01-08T14:29:31;79.78;;;50.47;;
23730;SDS011;12046;44.702;10.622;2023-01-08T14:32:00;73.65;;;43.30;;
23730;SDS011;12046;44.702;10.622;2023-01-08T14:34:28;76.13;;;41.03;;
23730;SDS011;12046;44.702;10.622;2023-01-08T14:36:55;72.75;;;40.65;;
23730;SDS011;12046;44.702;10.622;2023-01-08T14:39:25;74.18;;;44.45;;
23730;SDS011;12046;44.702;10.622;2023-01-08T14:45:03;79.43;;;43.90;;
23730;SDS011;12046;44.702;10.622;2023-01-08T14:47:36;67.68;;;40.88;;
23730;SDS011;12046;44.702;10.622;2023-01-08T14:50:04;70.53;;;41.75;;
23730;SDS011;12046;44.702;10.622;2023-01-08T14:52:32;72.32;;;41.10;;
23730;SDS011;12046;44.702;10.622;2023-01-08T14:54:59;72.40;;;42.03;;
23730;SDS011;12046;44.702;10.622;2023-01-08T14:57:27;79.88;;;46.17;;
23730;SDS011;12046;44.702;10.622;2023-01-08T14:59:55;74.10;;;43.15;;
23730;SDS011;12046;44.702;10.622;2023-01-08T15:02:25;66.05;;;42.58;;
23730;SDS011;12046;44.702;10.622;2023-01-08T15:05:00;66.47;;;43.13;;
23730;SDS011;12046;44.702;10.622;2023-01-08T15:07:40;74.28;;;43.63;;
23730;SDS011;12046;44.702;10.622;2023-01-08T15:10:22;66.72;;;41.38;;
23730;SDS011;12046;44.702;10.622;2023-01-08T15:12:57;66.38;;;41.53;;
23730;SDS011;12046;44.702;10.622;2023-01-08T15:15:25;71.10;;;45.10;;
23730;SDS011;12046;44.702;10.622;2023-01-08T15:17:52;67.65;;;43.35;;
23730;SDS011;12046;44.702;10.622;2023-01-08T15:20:19;65.53;;;43.55;;
23730;SDS011;12046;44.702;10.622;2023-01-08T15:22:48;64.07;;;42.45;;
23730;SDS011;12046;44.702;10.622;2023-01-08T15:25:16;65.00;;;42.40;;
23730;SDS011;12046;44.702;10.622;2023-01-08T15:27:55;63.92;;;41.40;;
23730;SDS011;12046;44.702;10.622;2023-01-08T15:30:30;66.20;;;44.38;;
23730;SDS011;12046;44.702;10.622;2023-01-08T15:33:34;68.50;;;46.33;;
23730;SDS011;12046;44.702;10.622;2023-01-08T15:35:53;62.15;;;40.05;;
23730;SDS011;12046;44.702;10.622;2023-01-08T15:38:20;69.90;;;44.90;;
23730;SDS011;12046;44.702;10.622;2023-01-08T15:40:48;64.03;;;41.75;;
23730;SDS011;12046;44.702;10.622;2023-01-08T15:43:15;63.22;;;41.50;;
23730;SDS011;12046;44.702;10.622;2023-01-08T15:45:44;68.28;;;43.75;;
23730;SDS011;12046;44.702;10.622;2023-01-08T15:48:11;65.93;;;42.05;;
23730;SDS011;12046;44.702;10.622;2023-01-08T15:50:39;65.15;;;42.08;;
23730;SDS011;12046;44.702;10.622;2023-01-08T15:53:19;70.20;;;43.60;;
23730;SDS011;12046;44.702;10.622;2023-01-08T15:55:49;78.03;;;48.90;;
23730;SDS011;12046;44.702;10.622;2023-01-08T15:58:16;68.28;;;41.88;;
23730;SDS011;12046;44.702;10.622;2023-01-08T16:00:43;64.70;;;42.58;;
23730;SDS011;12046;44.702;10.622;2023-01-08T16:03:10;62.72;;;40.83;;
23730;SDS011;12046;44.702;10.622;2023-01-08T16:05:38;63.78;;;42.42;;
23730;SDS011;12046;44.702;10.622;2023-01-08T16:08:04;64.05;;;45.13;;
23730;SDS011;12046;44.702;10.622;2023-01-08T16:10:31;63.35;;;40.17;;
23730;SDS011;12046;44.702;10.622;2023-01-08T16:13:01;63.67;;;44.10;;